Página principal
METAR-TAF:

METAR-TAF

Aeroportos :

Aeroporto Internacional de Honiara

Honiara, Guadalcanal, Ilhas Salomão

latitude: 09-25S, longitude: 160-03E, altura: 8 m

Observação actual do tempo

O boletim foi feito há 51 minutos, às 12:00 UTC
Vento 3 kt de sul
Temperatura 26°C
Humidade 94%
Pressão 1009 hPa
Visibilidade 10 km ou mais
Poucas nuvensa uma altura de 1600 ft
Nuvens dispersasa uma altura de 3000 ft
bruma

METAR: AGGH 171200Z 18003KT 9999 HZ FEW016 SCT030 26/25 Q1009

Hora: 23:51 (12:51 UTC)

Previsão

O boletim foi feito há 1 hora e 36 minutos, às 11:15 UTC
Previsão válida de 17 às 12 UTC a 18 às 12 UTC
Vento 3 kt com direcção variável
Visibilidade 10 km ou mais
Poucas nuvensa uma altura de 1700 ft
Nuvens dispersasa uma altura de 2800 ft
A partir de 17 às 2300 UTC
Vento 10 kt de este
Visibilidade: 1008 m
Nuvens dispersasa uma altura de 1900 ft

TAF: AGGH 171115Z 1712/1812 VRB03KT 9999 FEW017 SCT028 FM172300 09010KT SCT019 T 26 25 24 26 Q 1009 1007 1006 1008

Observações e previsões do tempo de mais de 4000 aeroportos (mensagens METAR e TAF).

As estações disponíveis são os pontos amarelos e vermelhos sobre o mapa.

Mova o rato sobre o mapa para ver o nome da estação.

Depois clique no ponto para visualizar as observações e previsões meteorológicas.

Para alterar o mapa : clique nos botões verdes com uma cruz preta para aumentar o zoom; no botão verde com uma pitada de zoom; ou nas setas verdes para mapas adjacentes.


METAR-TAF: